createdAt,value
2018-07-07T00:01:51.253Z,16.90
2018-07-07T00:04:20.462Z,16.94
2018-07-07T00:06:49.704Z,16.88
2018-07-07T00:09:18.920Z,16.89
2018-07-07T00:11:48.096Z,16.88
2018-07-07T00:14:17.509Z,16.88
2018-07-07T00:16:46.713Z,16.78
2018-07-07T00:19:15.894Z,16.78
2018-07-07T00:21:45.160Z,16.79
2018-07-07T00:24:14.560Z,16.77
2018-07-07T00:26:43.793Z,16.68
2018-07-07T00:29:13.136Z,16.62
2018-07-07T00:31:42.286Z,16.39
2018-07-07T00:34:11.632Z,16.19
2018-07-07T00:36:40.850Z,16.05
2018-07-07T00:39:10.075Z,15.93
2018-07-07T00:41:39.209Z,15.84
2018-07-07T00:44:08.460Z,15.89
2018-07-07T00:46:37.688Z,15.92
2018-07-07T00:49:06.919Z,15.79
2018-07-07T00:51:36.164Z,15.84
2018-07-07T00:54:05.339Z,15.79
2018-07-07T00:56:34.484Z,15.75
2018-07-07T00:59:03.984Z,15.62
2018-07-07T01:01:33.212Z,15.51
2018-07-07T01:04:02.389Z,15.50
2018-07-07T01:06:32.884Z,15.48
2018-07-07T01:09:02.164Z,15.50
2018-07-07T01:11:31.393Z,15.39
2018-07-07T01:14:00.604Z,15.36
2018-07-07T01:16:29.728Z,15.30
2018-07-07T01:18:58.948Z,15.22
2018-07-07T01:21:28.234Z,15.03
2018-07-07T01:23:57.404Z,15.06
2018-07-07T01:26:26.621Z,15.05
2018-07-07T01:28:55.848Z,14.94
2018-07-07T01:31:25.067Z,15.02
2018-07-07T01:33:54.250Z,14.93
2018-07-07T01:36:23.393Z,14.71
2018-07-07T01:38:52.561Z,14.68
2018-07-07T01:41:21.821Z,14.53
2018-07-07T01:43:51.117Z,14.36
2018-07-07T01:46:20.240Z,14.38
2018-07-07T01:48:49.449Z,14.31
2018-07-07T01:51:18.685Z,14.29
2018-07-07T01:53:47.809Z,14.26
2018-07-07T01:56:17.107Z,14.20
2018-07-07T01:58:46.506Z,14.16
2018-07-07T02:01:15.894Z,14.25
2018-07-07T02:03:45.085Z,14.11
2018-07-07T02:06:14.376Z,14.10
2018-07-07T02:08:43.537Z,14.04
2018-07-07T02:11:12.782Z,13.99
2018-07-07T02:13:42.233Z,13.92
2018-07-07T02:16:11.407Z,13.75
2018-07-07T02:18:40.682Z,13.83
2018-07-07T02:21:09.860Z,13.91
2018-07-07T02:23:39.009Z,13.85
2018-07-07T02:26:08.228Z,13.97
2018-07-07T02:28:37.466Z,13.81
2018-07-07T02:31:06.986Z,13.73
2018-07-07T02:33:36.172Z,13.68
2018-07-07T02:36:05.364Z,13.54
2018-07-07T02:38:34.870Z,13.59
2018-07-07T02:41:04.060Z,13.59
2018-07-07T02:43:33.389Z,13.56
2018-07-07T02:46:02.577Z,13.45
2018-07-07T02:48:31.717Z,13.49
2018-07-07T02:51:00.976Z,13.51
2018-07-07T02:53:30.358Z,13.52
2018-07-07T02:55:59.653Z,13.45
2018-07-07T02:58:28.921Z,13.49
2018-07-07T03:00:58.261Z,13.50
2018-07-07T03:03:27.457Z,13.51
2018-07-07T03:05:56.857Z,13.48
2018-07-07T03:08:25.980Z,13.45
2018-07-07T03:10:55.211Z,13.46
2018-07-07T03:13:24.330Z,13.45
2018-07-07T03:15:53.748Z,13.33
2018-07-07T03:18:22.905Z,13.23
2018-07-07T03:20:52.388Z,13.25
2018-07-07T03:23:21.605Z,12.96
2018-07-07T03:25:50.808Z,12.66
2018-07-07T03:28:19.973Z,12.25
2018-07-07T03:30:49.128Z,12.18
2018-07-07T03:33:18.337Z,12.27
2018-07-07T03:35:47.517Z,12.43
2018-07-07T03:38:16.665Z,12.44
2018-07-07T03:40:45.857Z,12.41
2018-07-07T03:43:14.991Z,12.37
2018-07-07T03:45:44.153Z,12.44
2018-07-07T03:48:13.323Z,12.52
2018-07-07T03:50:42.476Z,12.52
2018-07-07T03:53:11.761Z,12.60
2018-07-07T03:55:40.992Z,12.86
2018-07-07T03:58:10.258Z,12.88
2018-07-07T04:00:39.522Z,12.91
2018-07-07T04:03:09.283Z,13.04
2018-07-07T04:05:38.513Z,12.99
2018-07-07T04:08:07.712Z,12.97
2018-07-07T04:10:36.845Z,13.04
2018-07-07T04:13:06.370Z,13.11
2018-07-07T04:15:35.509Z,13.17
2018-07-07T04:18:04.798Z,13.15
2018-07-07T04:20:33.924Z,12.94
2018-07-07T04:23:03.196Z,12.97
2018-07-07T04:25:32.455Z,13.11
2018-07-07T04:28:01.689Z,13.18
2018-07-07T04:30:30.908Z,13.38
2018-07-07T04:33:00.190Z,13.61
2018-07-07T04:35:29.346Z,13.82
2018-07-07T04:37:59.604Z,14.07
2018-07-07T04:40:28.744Z,14.37
2018-07-07T04:42:57.937Z,14.65
2018-07-07T04:45:27.334Z,14.92
2018-07-07T04:47:56.642Z,15.40
2018-07-07T04:50:25.910Z,15.76
2018-07-07T04:52:55.318Z,15.98
2018-07-07T04:55:24.724Z,16.13
2018-07-07T04:57:54.247Z,16.47
2018-07-07T05:00:23.617Z,16.62
2018-07-07T05:02:52.814Z,16.92
2018-07-07T05:05:22.073Z,16.85
2018-07-07T05:07:51.337Z,17.08
2018-07-07T05:10:20.605Z,17.11
2018-07-07T05:12:49.919Z,17.14
2018-07-07T05:15:19.181Z,17.16
2018-07-07T05:17:48.416Z,17.26
2018-07-07T05:20:18.120Z,17.43
2018-07-07T05:22:47.343Z,17.33
2018-07-07T05:25:16.496Z,17.04
2018-07-07T05:27:45.685Z,17.24
2018-07-07T05:30:14.957Z,17.24
2018-07-07T05:32:44.233Z,17.41
2018-07-07T05:35:13.381Z,17.25
2018-07-07T05:37:42.608Z,17.50
2018-07-07T05:40:11.864Z,18.15
2018-07-07T05:42:41.085Z,18.60
2018-07-07T05:45:10.358Z,18.35
2018-07-07T05:47:39.585Z,18.52
2018-07-07T05:50:08.899Z,18.51
2018-07-07T05:52:38.189Z,18.87
2018-07-07T05:55:07.533Z,19.46
2018-07-07T05:57:36.730Z,19.71
2018-07-07T06:00:05.902Z,19.67
2018-07-07T06:02:35.073Z,19.52
2018-07-07T06:05:04.389Z,18.25
2018-07-07T06:07:33.678Z,19.50
2018-07-07T06:10:03.422Z,19.48
2018-07-07T06:12:32.903Z,19.48
2018-07-07T06:15:02.262Z,19.79
2018-07-07T06:17:31.489Z,19.50
2018-07-07T06:20:00.748Z,19.32
2018-07-07T06:22:30.019Z,19.22
2018-07-07T06:24:59.421Z,19.22
2018-07-07T06:27:28.809Z,18.93
2018-07-07T06:29:58.183Z,19.25
2018-07-07T06:32:27.592Z,19.60
2018-07-07T06:34:56.728Z,19.06
2018-07-07T06:37:25.973Z,18.88
2018-07-07T06:39:55.085Z,19.12
2018-07-07T06:42:24.273Z,19.16
2018-07-07T06:44:53.448Z,19.19
2018-07-07T06:47:22.674Z,19.44
2018-07-07T06:49:51.801Z,19.40
2018-07-07T06:52:21.372Z,19.72
2018-07-07T06:54:50.629Z,19.61
2018-07-07T06:57:20.613Z,19.51
2018-07-07T06:59:50.640Z,19.78
2018-07-07T07:02:20.497Z,19.82
2018-07-07T07:04:49.666Z,19.78
2018-07-07T07:07:18.897Z,19.40
2018-07-07T07:09:48.065Z,19.39
2018-07-07T07:12:17.320Z,19.49
2018-07-07T07:14:46.558Z,19.72
2018-07-07T07:17:15.789Z,19.83
2018-07-07T07:19:45.157Z,20.00
2018-07-07T07:22:14.422Z,20.18
2018-07-07T07:24:43.841Z,20.02
2018-07-07T07:27:13.101Z,19.81
2018-07-07T07:29:42.248Z,19.87
2018-07-07T07:32:11.481Z,19.99
2018-07-07T07:34:40.678Z,20.02
2018-07-07T07:37:09.922Z,20.14
2018-07-07T07:39:39.051Z,20.10
2018-07-07T07:42:08.306Z,20.28
2018-07-07T07:44:37.544Z,20.56
2018-07-07T07:47:06.785Z,20.51
2018-07-07T07:49:35.915Z,20.60
2018-07-07T07:52:05.205Z,20.72
2018-07-07T07:54:34.600Z,21.24
2018-07-07T07:57:03.899Z,21.19
2018-07-07T07:59:33.175Z,21.53
2018-07-07T08:02:02.499Z,21.73
2018-07-07T08:04:31.627Z,21.48
2018-07-07T08:07:00.849Z,22.06
2018-07-07T08:09:29.985Z,22.25
2018-07-07T08:11:59.186Z,22.45
2018-07-07T08:14:29.777Z,22.22
2018-07-07T08:16:58.985Z,22.50
2018-07-07T08:19:28.686Z,22.45
2018-07-07T08:24:26.029Z,22.65
2018-07-07T08:26:55.286Z,23.04
2018-07-07T08:29:24.611Z,23.37
2018-07-07T08:31:53.889Z,23.38
2018-07-07T08:34:23.208Z,23.37
2018-07-07T08:36:52.473Z,23.50
2018-07-07T08:39:21.627Z,23.67
2018-07-07T08:41:51.021Z,23.52
2018-07-07T08:44:20.261Z,23.15
2018-07-07T08:46:49.591Z,23.07
2018-07-07T08:49:18.734Z,23.44
2018-07-07T08:51:48.089Z,24.14
2018-07-07T08:54:17.311Z,24.56
2018-07-07T08:56:46.553Z,24.45
2018-07-07T08:59:15.749Z,24.18
2018-07-07T09:01:45.049Z,24.06
2018-07-07T09:04:14.272Z,24.46
2018-07-07T09:06:43.445Z,25.01
2018-07-07T09:09:12.665Z,25.16
2018-07-07T09:11:41.965Z,25.01
2018-07-07T09:14:11.268Z,24.73
2018-07-07T09:16:40.666Z,24.92
2018-07-07T09:19:09.909Z,25.46
2018-07-07T09:21:39.163Z,25.83
2018-07-07T09:24:08.422Z,25.38
2018-07-07T09:26:37.762Z,25.75
2018-07-07T09:29:06.901Z,25.82
2018-07-07T09:31:36.187Z,25.89
2018-07-07T09:34:05.357Z,25.82
2018-07-07T09:36:34.685Z,25.86
2018-07-07T09:39:04.753Z,25.85
2018-07-07T09:41:34.156Z,25.70
2018-07-07T09:44:03.530Z,25.93
2018-07-07T09:46:32.719Z,25.97
2018-07-07T09:49:02.075Z,25.96
2018-07-07T09:51:31.374Z,26.07
2018-07-07T09:54:00.671Z,26.56
2018-07-07T09:56:29.905Z,25.93
2018-07-07T09:58:59.224Z,25.54
2018-07-07T10:01:28.442Z,25.69
2018-07-07T10:03:57.622Z,25.73
2018-07-07T10:06:26.837Z,25.99
2018-07-07T10:08:56.045Z,26.37
2018-07-07T10:11:25.201Z,26.76
2018-07-07T10:13:55.389Z,27.22
2018-07-07T10:16:25.430Z,26.51
2018-07-07T10:18:54.668Z,26.42
2018-07-07T10:21:23.903Z,23.56
2018-07-07T10:23:53.182Z,26.64
2018-07-07T10:26:22.353Z,26.81
2018-07-07T10:28:51.685Z,26.93
2018-07-07T10:31:20.925Z,27.01
2018-07-07T10:33:50.128Z,26.94
2018-07-07T10:36:19.260Z,27.41
2018-07-07T10:38:48.431Z,27.92
2018-07-07T10:41:17.597Z,27.87
2018-07-07T10:43:46.947Z,28.18
2018-07-07T10:46:16.076Z,28.14
2018-07-07T10:48:45.449Z,28.07
2018-07-07T10:51:14.573Z,27.89
2018-07-07T10:53:43.836Z,27.28
2018-07-07T10:56:12.967Z,27.34
2018-07-07T10:58:42.167Z,27.20
2018-07-07T11:01:11.396Z,27.93
2018-07-07T11:03:40.618Z,27.97
2018-07-07T11:06:09.730Z,27.23
2018-07-07T11:08:39.015Z,27.58
2018-07-07T11:11:08.327Z,28.30
2018-07-07T11:13:37.493Z,28.47
2018-07-07T11:16:06.821Z,28.40
2018-07-07T11:18:36.010Z,27.80
2018-07-07T11:21:05.293Z,27.57
2018-07-07T11:23:34.652Z,28.24
2018-07-07T11:26:03.788Z,28.54
2018-07-07T11:28:33.135Z,28.84
2018-07-07T11:31:02.327Z,28.74
2018-07-07T11:33:31.644Z,29.04
2018-07-07T11:36:00.932Z,28.27
2018-07-07T11:38:30.176Z,28.22
2018-07-07T11:40:59.736Z,28.76
2018-07-07T11:43:29.232Z,28.55
2018-07-07T11:45:58.441Z,28.22
2018-07-07T11:48:27.736Z,27.71
2018-07-07T11:50:56.944Z,27.82
2018-07-07T11:53:26.146Z,28.32
2018-07-07T11:55:55.447Z,28.23
2018-07-07T11:58:24.700Z,28.16
2018-07-07T12:00:53.858Z,28.28
2018-07-07T12:03:23.057Z,28.53
2018-07-07T12:05:52.258Z,28.64
2018-07-07T12:08:21.506Z,28.91
2018-07-07T12:10:50.774Z,28.19
2018-07-07T12:13:20.165Z,27.75
2018-07-07T12:15:49.417Z,27.69
2018-07-07T12:18:18.720Z,27.84
2018-07-07T12:20:48.119Z,28.08
2018-07-07T12:23:17.316Z,27.90
2018-07-07T12:25:46.501Z,28.37
2018-07-07T12:28:15.728Z,28.39
2018-07-07T12:30:45.573Z,28.20
2018-07-07T12:33:14.805Z,28.52
2018-07-07T12:35:44.024Z,29.11
2018-07-07T12:38:13.246Z,29.21
2018-07-07T12:40:42.593Z,28.41
2018-07-07T12:43:11.822Z,28.27
2018-07-07T12:45:41.124Z,27.96
2018-07-07T12:48:10.425Z,28.00
2018-07-07T12:50:39.767Z,28.51
2018-07-07T12:53:08.976Z,28.74
2018-07-07T12:55:38.226Z,28.77
2018-07-07T12:58:07.492Z,28.85
2018-07-07T13:00:36.693Z,28.77
2018-07-07T13:03:05.847Z,28.84
2018-07-07T13:05:35.204Z,28.89
2018-07-07T13:08:04.403Z,28.66
2018-07-07T13:10:33.818Z,28.50
2018-07-07T13:13:03.106Z,27.94
2018-07-07T13:15:32.404Z,28.35
2018-07-07T13:18:01.810Z,28.80
2018-07-07T13:20:30.979Z,28.87
2018-07-07T13:23:00.229Z,28.60
2018-07-07T13:25:29.569Z,28.27
2018-07-07T13:27:58.750Z,28.23
2018-07-07T13:30:27.945Z,28.30
2018-07-07T13:32:57.163Z,27.98
2018-07-07T13:35:26.292Z,28.04
2018-07-07T13:37:55.658Z,28.33
2018-07-07T13:40:24.835Z,28.00
2018-07-07T13:42:54.391Z,28.20
2018-07-07T13:45:23.621Z,28.27
2018-07-07T13:47:52.833Z,28.69
2018-07-07T13:50:22.069Z,28.99
2018-07-07T13:52:51.303Z,28.28
2018-07-07T13:55:20.411Z,28.50
2018-07-07T13:57:49.737Z,28.59
2018-07-07T14:00:19.069Z,28.72
2018-07-07T14:02:48.317Z,28.87
2018-07-07T14:05:17.505Z,29.12
2018-07-07T14:07:46.759Z,28.83
2018-07-07T14:10:16.081Z,29.24
2018-07-07T14:12:45.356Z,29.67
2018-07-07T14:15:14.676Z,29.24
2018-07-07T14:17:44.382Z,28.93
2018-07-07T14:20:13.801Z,29.12
2018-07-07T14:22:43.104Z,29.21
2018-07-07T14:25:12.498Z,29.52
2018-07-07T14:27:41.682Z,29.00
2018-07-07T14:30:11.456Z,28.75
2018-07-07T14:32:40.794Z,28.89
2018-07-07T14:35:10.095Z,28.55
2018-07-07T14:37:39.397Z,28.59
2018-07-07T14:40:08.693Z,28.75
2018-07-07T14:42:50.708Z,28.66
2018-07-07T14:45:24.152Z,28.61
2018-07-07T14:47:54.370Z,28.48
2018-07-07T14:50:23.849Z,28.29
2018-07-07T14:52:53.113Z,28.50
2018-07-07T14:55:25.396Z,28.65
2018-07-07T14:57:54.636Z,28.66
2018-07-07T15:00:25.244Z,28.06
2018-07-07T15:02:55.861Z,28.34
2018-07-07T15:05:25.171Z,28.29
2018-07-07T15:07:54.400Z,28.96
2018-07-07T15:10:23.743Z,29.08
2018-07-07T15:12:53.122Z,28.66
2018-07-07T15:15:22.441Z,28.50
2018-07-07T15:17:51.638Z,28.01
2018-07-07T15:20:20.850Z,28.28
2018-07-07T15:22:50.421Z,28.85
2018-07-07T15:25:20.053Z,28.93
2018-07-07T15:27:49.394Z,28.88
2018-07-07T15:30:18.695Z,28.67
2018-07-07T15:32:48.155Z,28.31
2018-07-07T15:35:17.426Z,28.17
2018-07-07T15:37:46.714Z,28.46
2018-07-07T15:40:15.930Z,28.29
2018-07-07T15:42:45.091Z,28.58
2018-07-07T15:45:14.365Z,28.24
2018-07-07T15:47:43.632Z,27.92
2018-07-07T15:50:13.228Z,27.88
2018-07-07T15:52:42.533Z,28.08
2018-07-07T15:55:11.850Z,28.11
2018-07-07T15:57:41.206Z,28.34
2018-07-07T16:00:11.506Z,28.13
2018-07-07T16:02:42.003Z,28.06
2018-07-07T16:05:11.239Z,28.13
2018-07-07T16:07:40.581Z,27.61
2018-07-07T16:10:09.953Z,26.11
2018-07-07T16:12:39.292Z,27.59
2018-07-07T16:15:08.508Z,27.73
2018-07-07T16:17:37.843Z,28.14
2018-07-07T16:20:07.098Z,28.46
2018-07-07T16:22:36.379Z,28.49
2018-07-07T16:25:05.651Z,28.10
2018-07-07T16:27:34.828Z,28.39
2018-07-07T16:30:04.299Z,28.59
2018-07-07T16:32:33.988Z,28.67
2018-07-07T16:35:05.844Z,28.73
2018-07-07T16:37:35.146Z,28.42
2018-07-07T16:40:04.655Z,28.94
2018-07-07T16:42:36.000Z,28.73
2018-07-07T16:45:05.523Z,28.95
2018-07-07T16:47:34.823Z,28.79
2018-07-07T16:50:04.224Z,28.87
2018-07-07T16:52:33.525Z,28.86
2018-07-07T16:55:02.912Z,28.57
2018-07-07T16:57:32.226Z,28.27
2018-07-07T17:00:01.628Z,28.14
2018-07-07T17:02:31.148Z,27.98
2018-07-07T17:05:00.431Z,27.86
2018-07-07T17:07:29.918Z,27.32
2018-07-07T17:09:59.335Z,27.32
2018-07-07T17:12:28.642Z,27.35
2018-07-07T17:14:57.889Z,27.36
2018-07-07T17:17:27.156Z,27.48
2018-07-07T17:19:57.407Z,27.49
2018-07-07T17:22:27.066Z,27.63
2018-07-07T17:24:56.956Z,27.57
2018-07-07T17:27:26.692Z,27.15
2018-07-07T17:29:56.651Z,26.81
2018-07-07T17:32:25.949Z,26.84
2018-07-07T17:34:56.064Z,27.04
2018-07-07T17:37:25.334Z,27.04
2018-07-07T17:39:54.824Z,27.06
2018-07-07T17:42:24.270Z,26.70
2018-07-07T17:44:54.045Z,26.80
2018-07-07T17:47:23.340Z,26.81
2018-07-07T17:49:52.616Z,26.75
2018-07-07T17:52:22.564Z,26.84
2018-07-07T17:54:52.111Z,26.80
2018-07-07T17:57:21.446Z,26.77
2018-07-07T17:59:50.797Z,26.87
2018-07-07T18:02:20.053Z,26.65
2018-07-07T18:04:49.564Z,26.59
2018-07-07T18:07:19.069Z,26.49
2018-07-07T18:09:48.573Z,26.24
2018-07-07T18:12:17.805Z,26.17
2018-07-07T18:14:47.359Z,26.13
2018-07-07T18:17:16.671Z,25.95
2018-07-07T18:19:45.930Z,25.84
2018-07-07T18:22:15.153Z,25.84
2018-07-07T18:24:44.516Z,25.44
2018-07-07T18:27:13.676Z,25.47
2018-07-07T18:29:43.168Z,25.50
2018-07-07T18:32:12.475Z,25.45
2018-07-07T18:34:41.786Z,25.17
2018-07-07T18:37:11.059Z,25.36
2018-07-07T18:39:40.343Z,25.44
2018-07-07T18:42:10.132Z,25.48
2018-07-07T18:44:39.913Z,25.36
2018-07-07T18:47:09.177Z,25.26
2018-07-07T18:49:38.491Z,25.29
2018-07-07T18:52:07.677Z,25.13
2018-07-07T18:54:37.297Z,25.09
2018-07-07T18:57:06.517Z,25.05
2018-07-07T18:59:35.907Z,25.01
2018-07-07T19:02:05.785Z,25.11
2018-07-07T19:04:35.165Z,25.04
2018-07-07T19:07:04.505Z,25.04
2018-07-07T19:09:33.724Z,24.68
2018-07-07T19:12:03.092Z,24.82
2018-07-07T19:14:32.411Z,24.79
2018-07-07T19:17:01.866Z,24.81
2018-07-07T19:19:31.221Z,24.44
2018-07-07T19:22:05.650Z,24.51
2018-07-07T19:24:40.138Z,24.44
2018-07-07T19:27:09.447Z,24.36
2018-07-07T19:29:38.612Z,24.33
2018-07-07T19:32:13.285Z,24.09
2018-07-07T19:34:47.833Z,24.08
2018-07-07T19:37:19.101Z,23.92
2018-07-07T19:39:48.552Z,23.78
2018-07-07T19:42:18.126Z,23.78
2018-07-07T19:44:47.456Z,23.60
2018-07-07T19:47:16.859Z,23.57
2018-07-07T19:49:46.231Z,23.38
2018-07-07T19:52:15.565Z,23.41
2018-07-07T19:54:44.893Z,23.36
2018-07-07T19:57:14.246Z,23.33
2018-07-07T19:59:43.480Z,23.27
2018-07-07T20:02:12.881Z,23.25
2018-07-07T20:04:42.207Z,23.18
2018-07-07T20:07:11.643Z,23.03
2018-07-07T20:09:40.891Z,22.97
2018-07-07T20:12:10.052Z,22.69
2018-07-07T20:14:39.270Z,22.58
2018-07-07T20:17:09.855Z,22.58
2018-07-07T20:20:58.730Z,22.51
2018-07-07T20:23:29.101Z,22.42
2018-07-07T20:26:03.036Z,22.30
2018-07-07T20:28:37.619Z,22.30
2018-07-07T20:31:06.933Z,22.30
2018-07-07T20:33:36.108Z,22.27
2018-07-07T20:36:05.428Z,22.29
2018-07-07T20:38:34.587Z,22.12
2018-07-07T20:41:03.887Z,22.08
2018-07-07T20:43:33.177Z,21.99
2018-07-07T20:46:02.509Z,19.06
2018-07-07T20:48:31.741Z,21.94
2018-07-07T20:51:00.971Z,21.92
2018-07-07T20:53:30.234Z,21.81
2018-07-07T20:55:59.422Z,21.79
2018-07-07T20:58:28.644Z,21.65
2018-07-07T21:00:57.867Z,21.59
2018-07-07T21:03:27.034Z,21.59
2018-07-07T21:05:56.365Z,21.50
2018-07-07T21:08:25.583Z,21.49
2018-07-07T21:10:54.781Z,21.30
2018-07-07T21:13:24.037Z,21.42
2018-07-07T21:15:53.292Z,21.25
2018-07-07T21:18:22.517Z,21.11
2018-07-07T21:20:51.717Z,21.07
2018-07-07T21:23:20.971Z,21.07
2018-07-07T21:25:50.181Z,21.03
2018-07-07T21:28:19.409Z,20.89
2018-07-07T21:30:48.617Z,20.61
2018-07-07T21:33:18.785Z,20.79
2018-07-07T21:35:48.048Z,20.51
2018-07-07T21:38:17.250Z,20.71
2018-07-07T21:40:46.468Z,20.66
2018-07-07T21:43:15.780Z,20.71
2018-07-07T21:45:45.206Z,20.69
2018-07-07T21:48:14.513Z,20.49
2018-07-07T21:50:43.797Z,20.35
2018-07-07T21:53:12.957Z,20.40
2018-07-07T21:55:42.145Z,20.38
2018-07-07T21:58:16.586Z,20.28
2018-07-07T22:01:02.548Z,20.29
2018-07-07T22:03:37.109Z,20.16
2018-07-07T22:06:08.397Z,20.13
2018-07-07T22:08:38.129Z,20.04
2018-07-07T22:11:07.770Z,20.01
2018-07-07T22:13:37.642Z,19.91
2018-07-07T22:16:06.986Z,19.89
2018-07-07T22:18:36.126Z,19.52
2018-07-07T22:21:16.461Z,19.24
2018-07-07T22:23:45.720Z,19.14
2018-07-07T22:26:15.024Z,19.01
2018-07-07T22:28:44.441Z,18.96
2018-07-07T22:31:13.726Z,19.17
2018-07-07T22:33:42.888Z,19.14
2018-07-07T22:36:48.860Z,19.19
2018-07-07T22:39:18.136Z,19.10
2018-07-07T22:42:02.545Z,19.08
2018-07-07T22:44:32.499Z,19.05
2018-07-07T22:47:01.800Z,19.03
2018-07-07T22:49:31.638Z,18.97
2018-07-07T22:52:01.284Z,18.67
2018-07-07T22:54:30.609Z,18.66
2018-07-07T22:56:59.747Z,18.62
2018-07-07T22:59:29.080Z,18.58
2018-07-07T23:01:58.318Z,18.65
2018-07-07T23:04:27.575Z,18.57
2018-07-07T23:06:57.067Z,18.37
2018-07-07T23:09:26.317Z,18.35
2018-07-07T23:11:55.557Z,18.29
2018-07-07T23:14:24.787Z,18.06
2018-07-07T23:16:57.789Z,18.06
2018-07-07T23:19:27.505Z,17.95
2018-07-07T23:21:57.176Z,17.96
2018-07-07T23:24:26.372Z,17.89
2018-07-07T23:26:55.638Z,17.72
2018-07-07T23:29:24.927Z,17.83
2018-07-07T23:31:54.165Z,17.88
2018-07-07T23:34:23.421Z,17.76
2018-07-07T23:36:52.770Z,17.62
2018-07-07T23:39:22.018Z,17.67
2018-07-07T23:41:51.471Z,17.70
2018-07-07T23:44:20.652Z,17.66
2018-07-07T23:46:49.940Z,17.74
2018-07-07T23:49:19.242Z,17.68
2018-07-07T23:51:48.477Z,17.57
2018-07-07T23:54:17.641Z,17.67
2018-07-07T23:56:46.819Z,17.83
2018-07-07T23:59:16.037Z,17.73
